Time;durP1;ratioP1;P1;durP2;ratioP2;P2;SDS_P1;SDS_P2;PMS_P1;PMS_P2;Temp;Humidity;BMP_temperature;BMP_pressure;BME280_temperature;BME280_humidity;BME280_pressure;Samples;Min_cycle;Max_cycle;Signal;HPM_P1;HPM_P2
2021/06/10 00:01:26;;;;;;;25.05;12.98;;;;;;;14.26;66.30;100987.00;1612959;89;21806;-68
2021/06/10 00:03:52;;;;;;;21.65;11.50;;;;;;;14.27;66.34;100990.02;1595146;89;20982;-69
2021/06/10 00:06:18;;;;;;;15.93;11.45;;;;;;;14.23;66.41;100980.66;1585175;90;21383;-68
2021/06/10 00:08:44;;;;;;;19.25;11.95;;;;;;;14.00;66.27;100965.89;1585233;90;21088;-68
2021/06/10 00:11:10;;;;;;;19.73;12.37;;;;;;;14.00;66.27;100965.89;1585272;90;21093;-69
2021/06/10 00:13:36;;;;;;;21.40;13.35;;;;;;;14.08;66.61;100985.13;1585282;90;21117;-68
2021/06/10 00:16:03;;;;;;;23.60;12.18;;;;;;;14.00;66.63;100979.83;1585242;90;21072;-69
2021/06/10 00:18:29;;;;;;;21.93;13.15;;;;;;;13.92;66.69;100980.72;1585271;90;21021;-69
2021/06/10 00:20:55;;;;;;;21.12;10.72;;;;;;;13.79;66.78;100963.55;1585278;90;21109;-69
2021/06/10 00:23:21;;;;;;;26.77;11.15;;;;;;;13.72;66.79;100971.43;1585288;90;21105;-69
2021/06/10 00:25:47;;;;;;;17.85;10.50;;;;;;;13.72;66.79;100971.43;1585408;90;21183;-68
2021/06/10 00:28:13;;;;;;;17.77;10.08;;;;;;;13.70;67.06;100969.95;1586128;88;21017;-68
2021/06/10 00:30:39;;;;;;;14.43;9.25;;;;;;;13.69;67.18;100970.45;1617373;88;21512;-69
2021/06/10 00:33:05;;;;;;;20.55;11.38;;;;;;;13.65;67.29;100974.48;1617414;88;21019;-69
2021/06/10 00:35:31;;;;;;;16.10;10.70;;;;;;;13.65;67.41;100975.02;1584563;90;21085;-69
2021/06/10 00:37:59;;;;;;;16.97;11.45;;;;;;;13.62;67.52;100972.66;1584713;90;21130;-69
2021/06/10 00:40:27;;;;;;;19.92;12.07;;;;;;;13.64;67.58;100973.34;1584445;90;21065;-68
2021/06/10 00:42:53;;;;;;;18.92;12.10;;;;;;;13.64;67.58;100973.34;1584611;90;21069;-68
2021/06/10 00:45:20;;;;;;;21.82;11.85;;;;;;;13.62;67.72;100971.32;1599458;89;21039;-69
2021/06/10 00:47:48;;;;;;;17.98;11.30;;;;;;;13.59;67.77;100970.33;1612987;89;21559;-68
2021/06/10 00:50:15;;;;;;;19.65;11.78;;;;;;;13.56;67.79;100971.53;1612793;88;21021;-69
2021/06/10 00:52:41;;;;;;;17.00;11.08;;;;;;;13.55;67.82;100977.05;1612834;88;21020;-68
2021/06/10 00:55:07;;;;;;;19.92;11.95;;;;;;;13.51;67.85;100968.53;1612743;89;21054;-68
2021/06/10 00:57:34;;;;;;;17.65;10.90;;;;;;;13.45;67.86;100976.77;1612618;88;21081;-68
2021/06/10 01:00:00;;;;;;;24.32;11.22;;;;;;;13.39;67.92;100968.10;1612559;89;21090;-69
2021/06/10 01:02:26;;;;;;;19.67;10.90;;;;;;;13.36;67.99;100966.27;1612714;89;22150;-69
2021/06/10 01:04:52;;;;;;;21.70;9.90;;;;;;;13.29;68.04;100968.81;1612709;88;21108;-68
2021/06/10 01:07:45;;;;;;;16.37;9.50;;;;;;;13.27;68.17;100971.31;1612618;89;21066;-68
2021/06/10 01:10:36;;;;;;;13.13;9.68;;;;;;;13.24;68.27;100972.50;1612345;88;21487;-69
2021/06/10 01:13:10;;;;;;;15.40;10.10;;;;;;;13.25;68.39;100968.83;1604393;87;21014;-69
2021/06/10 01:15:40;;;;;;;21.40;10.63;;;;;;;13.29;68.49;100971.50;1611959;89;21527;-69
2021/06/10 01:18:06;;;;;;;16.45;10.08;;;;;;;13.27;68.54;100965.45;1586327;90;21043;-69
2021/06/10 01:20:32;;;;;;;19.77;10.72;;;;;;;13.19;68.61;100966.84;1612883;87;21013;-69
2021/06/10 01:23:06;;;;;;;16.02;10.18;;;;;;;13.13;68.67;100969.36;1612636;87;21072;-70
2021/06/10 01:25:40;;;;;;;13.75;9.43;;;;;;;13.06;68.76;100962.48;1612588;88;21018;-70
2021/06/10 01:28:12;;;;;;;15.43;9.93;;;;;;;13.01;68.83;100958.17;1585472;90;21091;-70
2021/06/10 01:30:51;;;;;;;12.03;8.00;;;;;;;12.93;68.90;100955.50;1612705;88;21474;-70
2021/06/10 01:33:22;;;;;;;11.03;7.53;;;;;;;12.91;68.98;100952.17;1613000;88;21117;-69
2021/06/10 01:35:57;;;;;;;14.93;7.10;;;;;;;12.87;69.03;100953.52;1612933;89;21502;-69
2021/06/10 01:38:26;;;;;;;11.60;6.15;;;;;;;12.80;69.08;100959.22;1613017;89;21140;-70
2021/06/10 01:40:53;;;;;;;9.90;6.08;;;;;;;12.75;69.16;100946.84;1580126;90;21039;-70
2021/06/10 01:43:19;;;;;;;10.72;7.00;;;;;;;12.74;69.25;100945.16;1623787;88;21495;-69
2021/06/10 01:45:49;;;;;;;11.00;7.17;;;;;;;12.73;69.37;100939.00;1584351;90;21518;-69
2021/06/10 01:48:14;;;;;;;15.13;8.85;;;;;;;12.78;69.46;100945.16;1585415;90;21127;-70
2021/06/10 01:50:40;;;;;;;15.68;10.13;;;;;;;12.84;69.54;100947.17;1615255;88;21483;-69
2021/06/10 01:53:06;;;;;;;16.93;8.78;;;;;;;12.88;69.58;100944.46;1614859;88;21828;-69
2021/06/10 01:55:32;;;;;;;24.10;7.37;;;;;;;12.90;69.62;100939.78;1570498;89;20976;-70
2021/06/10 01:57:59;;;;;;;13.80;6.95;;;;;;;12.85;69.66;100940.29;1612684;88;21038;-70
2021/06/10 02:00:25;;;;;;;14.65;7.15;;;;;;;12.81;69.71;100942.13;1612848;88;21037;-70
2021/06/10 02:02:52;;;;;;;13.00;7.00;;;;;;;12.79;69.75;100940.14;1612944;88;21482;-70
2021/06/10 02:05:20;;;;;;;11.15;7.00;;;;;;;12.79;69.79;100945.50;1612851;89;21264;-70
2021/06/10 02:07:46;;;;;;;14.78;6.53;;;;;;;12.75;69.80;100939.66;1612810;88;21470;-70
2021/06/10 02:10:15;;;;;;;10.03;6.47;;;;;;;12.74;69.82;100942.48;1596563;89;21085;-70
2021/06/10 02:12:45;;;;;;;8.70;6.00;;;;;;;12.73;69.87;100936.83;1612682;88;21017;-70
2021/06/10 02:15:12;;;;;;;16.85;6.37;;;;;;;12.73;69.92;100938.16;1612848;88;21069;-70
2021/06/10 02:17:38;;;;;;;20.02;6.22;;;;;;;12.73;69.96;100943.02;1612324;88;21156;-69
2021/06/10 02:20:05;;;;;;;16.25;7.60;;;;;;;12.73;70.04;100936.83;1600704;89;21549;-69
2021/06/10 02:22:34;;;;;;;23.50;7.15;;;;;;;12.75;70.13;100940.15;1612547;89;21037;-69
2021/06/10 02:25:00;;;;;;;17.75;9.48;;;;;;;12.78;70.17;100937.97;1612311;89;21083;-69
2021/06/10 02:27:26;;;;;;;23.73;10.30;;;;;;;12.83;70.23;100933.45;1612927;89;21049;-70
2021/06/10 02:29:52;;;;;;;28.00;14.18;;;;;;;12.87;70.27;100937.45;1612396;89;21103;-69
2021/06/10 02:32:18;;;;;;;17.30;10.78;;;;;;;12.92;70.29;100935.08;1612641;88;21069;-69
2021/06/10 02:34:44;;;;;;;19.07;11.00;;;;;;;12.92;70.31;100937.76;1612857;89;21582;-69
2021/06/10 02:37:10;;;;;;;16.20;10.15;;;;;;;12.96;70.30;100944.45;1612688;88;21530;-69
2021/06/10 02:39:39;;;;;;;20.35;10.65;;;;;;;12.94;70.30;100941.13;1612649;89;21107;-70
2021/06/10 02:42:06;;;;;;;18.25;8.95;;;;;;;12.92;70.29;100941.28;1612720;87;21573;-69
2021/06/10 02:44:32;;;;;;;14.75;6.70;;;;;;;12.89;70.29;100940.78;1612832;88;21097;-69
2021/06/10 02:47:03;;;;;;;13.05;6.00;;;;;;;12.91;70.33;100938.80;1612613;88;21073;-69
2021/06/10 02:49:26;;;;;;;11.60;7.37;;;;;;;12.93;70.35;100944.80;1612493;88;21024;-69
2021/06/10 02:51:52;;;;;;;12.68;7.28;;;;;;;12.94;70.37;100937.10;1612350;88;21017;-70
2021/06/10 02:54:19;;;;;;;14.25;7.90;;;;;;;12.94;70.41;100941.96;1612786;88;21057;-70
2021/06/10 02:56:45;;;;;;;15.30;7.08;;;;;;;12.98;70.49;100933.08;1612509;89;21074;-70
2021/06/10 02:59:12;;;;;;;17.10;7.62;;;;;;;13.00;70.58;100935.06;1612903;88;21093;-70
2021/06/10 03:01:41;;;;;;;18.42;9.43;;;;;;;13.05;70.62;100934.06;1595205;89;21623;-70
2021/06/10 03:04:08;;;;;;;15.70;8.75;;;;;;;13.08;70.64;100928.36;1612873;88;21052;-70
2021/06/10 03:06:35;;;;;;;25.48;10.18;;;;;;;13.10;70.65;100928.20;1612157;89;21958;-69
2021/06/10 03:09:01;;;;;;;21.68;8.60;;;;;;;13.11;70.66;100923.18;1586207;89;21019;-70
2021/06/10 03:11:27;;;;;;;16.73;8.20;;;;;;;13.08;70.68;100927.02;1612545;88;21100;-70
2021/06/10 03:13:53;;;;;;;13.13;8.08;;;;;;;13.03;70.67;100926.69;1613018;87;21085;-70
2021/06/10 03:16:19;;;;;;;20.02;11.00;;;;;;;13.00;70.74;100920.34;1612861;89;21612;-70
2021/06/10 03:18:45;;;;;;;42.25;17.12;;;;;;;13.09;70.76;100924.67;1595408;89;21802;-70
2021/06/10 03:21:11;;;;;;;23.05;10.48;;;;;;;13.18;70.75;100919.64;1612625;89;21023;-70
2021/06/10 03:23:37;;;;;;;27.35;9.63;;;;;;;13.26;70.76;100920.11;1612682;89;21024;-70
2021/06/10 03:26:03;;;;;;;29.72;18.30;;;;;;;13.40;70.81;100922.89;1585908;90;21099;-70
2021/06/10 03:28:29;;;;;;;26.60;16.90;;;;;;;14.03;71.14;100915.11;1623680;88;21079;-70
2021/06/10 03:30:55;;;;;;;16.20;10.08;;;;;;;14.74;70.95;100915.16;1625645;87;21716;-70
2021/06/10 03:33:22;;;;;;;20.65;11.03;;;;;;;15.47;70.75;100925.34;1626246;87;21034;-70
2021/06/10 03:35:48;;;;;;;16.85;8.85;;;;;;;16.33;70.42;100920.33;1626528;87;21091;-70
2021/06/10 03:38:14;;;;;;;24.80;8.93;;;;;;;16.88;69.87;100911.95;1626513;88;21551;-70
2021/06/10 03:40:45;;;;;;;10.28;7.20;;;;;;;17.08;69.29;100914.23;1626371;88;21463;-70
2021/06/10 03:43:12;;;;;;;13.00;7.08;;;;;;;17.14;68.86;100911.25;1625305;88;21160;-70
2021/06/10 03:45:39;;;;;;;21.82;8.90;;;;;;;17.43;68.50;100909.62;1625826;88;21006;-71
2021/06/10 03:48:07;;;;;;;17.57;7.65;;;;;;;17.95;68.15;100915.70;1626423;88;21018;-70
2021/06/10 03:50:35;;;;;;;14.58;7.20;;;;;;;18.69;67.64;100910.12;1603902;88;21157;-70
2021/06/10 03:53:01;;;;;;;22.87;8.05;;;;;;;19.44;66.91;100913.06;1626764;88;21047;-70
2021/06/10 03:55:27;;;;;;;20.25;7.58;;;;;;;20.24;66.04;100919.63;1626324;88;22253;-71
2021/06/10 03:57:53;;;;;;;17.75;7.75;;;;;;;20.92;65.04;100911.54;1626400;87;21082;-71
2021/06/10 04:00:20;;;;;;;10.30;6.45;;;;;;;21.50;64.07;100913.81;1626679;86;21055;-71
2021/06/10 04:02:46;;;;;;;14.18;6.70;;;;;;;22.13;62.98;100908.19;1625964;88;21519;-71
2021/06/10 04:05:12;;;;;;;16.23;7.33;;;;;;;22.58;61.84;100914.47;1626637;88;21593;-71
2021/06/10 04:07:38;;;;;;;16.50;7.53;;;;;;;22.94;60.95;100916.95;1626355;88;22066;-71
2021/06/10 04:10:05;;;;;;;23.12;7.05;;;;;;;23.36;59.90;100915.69;1626455;88;21070;-71
2021/06/10 04:12:31;;;;;;;14.30;7.05;;;;;;;24.00;58.83;100916.39;1626642;88;21090;-71
2021/06/10 04:14:57;;;;;;;16.17;6.53;;;;;;;24.42;57.68;100913.34;1626438;86;21035;-71
2021/06/10 04:17:23;;;;;;;13.28;7.10;;;;;;;24.82;56.60;100916.67;1626384;87;21074;-71
2021/06/10 04:19:49;;;;;;;15.35;6.35;;;;;;;25.20;55.50;100913.95;1626310;88;21307;-71
2021/06/10 04:22:16;;;;;;;14.00;6.78;;;;;;;25.58;54.37;100912.27;1626304;87;21034;-71
2021/06/10 04:24:42;;;;;;;19.00;7.00;;;;;;;25.75;53.18;100908.91;1604117;88;21078;-71
2021/06/10 04:27:08;;;;;;;15.28;7.10;;;;;;;25.29;52.09;100915.18;1626607;88;21083;-71
2021/06/10 04:29:34;;;;;;;15.83;7.10;;;;;;;24.11;52.06;100910.06;1625882;87;21063;-71
2021/06/10 04:32:01;;;;;;;14.18;4.10;;;;;;;23.86;52.09;100909.59;1623699;88;22121;-71
2021/06/10 04:34:27;;;;;;;6.75;2.70;;;;;;;23.85;51.93;100903.88;1623591;88;21499;-71
2021/06/10 04:36:53;;;;;;;3.95;2.95;;;;;;;23.86;51.71;100897.34;1623425;88;21641;-71
2021/06/10 04:39:19;;;;;;;8.35;2.98;;;;;;;23.93;51.45;100897.19;1623627;88;21026;-71
2021/06/10 04:41:45;;;;;;;6.08;3.60;;;;;;;23.91;51.03;100887.08;1623594;87;21113;-71
2021/06/10 04:44:11;;;;;;;9.83;2.52;;;;;;;23.69;50.71;100892.39;1623624;87;21437;-71
2021/06/10 04:46:37;;;;;;;5.90;2.45;;;;;;;23.51;50.42;100889.86;1623574;88;21030;-71
2021/06/10 04:49:04;;;;;;;5.33;2.72;;;;;;;23.32;50.07;100886.48;1623889;88;21074;-71
2021/06/10 04:51:31;;;;;;;6.17;2.98;;;;;;;23.19;49.73;100890.30;1623723;88;21034;-71
2021/06/10 04:53:57;;;;;;;9.55;3.25;;;;;;;23.18;49.55;100885.94;1623830;87;21514;-71
2021/06/10 04:56:23;;;;;;;11.50;3.50;;;;;;;23.55;49.31;100889.67;1623791;88;22343;-71
2021/06/10 04:58:49;;;;;;;5.12;2.60;;;;;;;23.86;48.94;100885.08;1623305;88;20985;-71
2021/06/10 05:01:15;;;;;;;8.88;3.52;;;;;;;23.75;48.54;100886.00;1623660;87;21590;-71
2021/06/10 05:03:41;;;;;;;5.20;3.40;;;;;;;23.39;48.27;100892.09;1623788;88;21018;-70
2021/06/10 05:06:08;;;;;;;9.20;4.67;;;;;;;22.88;48.13;100901.06;1623951;88;21578;-70
2021/06/10 05:08:34;;;;;;;6.85;2.58;;;;;;;22.43;48.09;100899.14;1623868;88;21783;-70
2021/06/10 05:11:00;;;;;;;6.55;3.08;;;;;;;22.06;48.12;100903.39;1623731;88;21079;-70
2021/06/10 05:13:27;;;;;;;9.10;4.70;;;;;;;21.76;48.25;100905.29;1623675;88;21068;-70
2021/06/10 05:15:53;;;;;;;9.68;5.30;;;;;;;21.54;48.40;100914.46;1623841;88;21024;-70
2021/06/10 05:18:19;;;;;;;10.28;3.50;;;;;;;21.40;48.59;100911.09;1623991;87;21025;-70
2021/06/10 05:20:45;;;;;;;9.35;3.83;;;;;;;21.29;48.75;100910.50;1623881;88;21068;-70
2021/06/10 05:23:11;;;;;;;5.83;3.55;;;;;;;21.24;48.92;100913.08;1623940;88;21515;-70
2021/06/10 05:25:37;;;;;;;5.03;3.10;;;;;;;21.18;49.22;100919.39;1612797;89;21016;-70
2021/06/10 05:28:03;;;;;;;7.30;5.05;;;;;;;21.03;49.31;100951.48;1612124;87;21108;-70
2021/06/10 05:30:29;;;;;;;11.95;8.95;;;;;;;20.69;49.51;101017.89;1613421;88;21557;-70
2021/06/10 05:32:55;;;;;;;10.75;8.98;;;;;;;19.86;50.05;101006.84;1615582;88;22100;-70
2021/06/10 05:35:21;;;;;;;14.90;9.63;;;;;;;19.16;51.04;101019.84;1615890;88;21052;-70
2021/06/10 05:37:48;;;;;;;16.20;9.43;;;;;;;18.68;51.66;101015.21;1610181;89;21089;-70
2021/06/10 05:40:14;;;;;;;15.45;9.53;;;;;;;18.29;52.39;101014.62;1585061;90;21091;-70
2021/06/10 05:42:40;;;;;;;15.65;9.28;;;;;;;18.04;52.88;101019.75;1594585;89;21094;-70
2021/06/10 05:45:07;;;;;;;12.80;8.53;;;;;;;17.84;53.32;101012.09;1611175;89;21157;-69
2021/06/10 05:47:33;;;;;;;12.30;7.00;;;;;;;17.70;53.73;101011.72;1646959;87;21040;-70
2021/06/10 05:49:59;;;;;;;13.83;7.22;;;;;;;17.52;54.12;101009.56;1647317;87;21028;-70
2021/06/10 05:52:26;;;;;;;12.47;6.20;;;;;;;17.44;54.41;101018.65;1647018;87;21072;-70
2021/06/10 05:54:52;;;;;;;7.87;6.85;;;;;;;17.38;54.65;101022.66;1615202;88;21492;-70
2021/06/10 05:57:19;;;;;;;16.70;6.03;;;;;;;17.28;54.93;101018.95;1594433;88;21998;-69
2021/06/10 05:59:47;;;;;;;8.25;5.85;;;;;;;17.18;55.17;101014.95;1599064;89;21061;-69
2021/06/10 06:02:15;;;;;;;9.55;6.35;;;;;;;17.14;55.36;101024.45;1599456;89;21068;-69
2021/06/10 06:04:42;;;;;;;10.00;5.92;;;;;;;17.07;55.58;101023.06;1599077;88;21032;-70
2021/06/10 06:07:08;;;;;;;12.47;7.22;;;;;;;16.96;55.80;101019.56;1599266;89;21025;-69
2021/06/10 06:09:37;;;;;;;8.78;6.40;;;;;;;16.83;56.07;101016.77;1599413;89;21175;-70
2021/06/10 06:12:09;;;;;;;12.80;7.15;;;;;;;16.72;56.35;101012.75;1599506;89;21082;-70
2021/06/10 06:14:37;;;;;;;12.63;7.50;;;;;;;16.63;56.58;101007.70;1587399;89;21084;-70
2021/06/10 06:17:07;;;;;;;11.50;8.33;;;;;;;16.49;56.97;100998.14;1599094;89;21506;-69
2021/06/10 06:19:35;;;;;;;10.50;9.08;;;;;;;16.33;57.40;101000.24;1578767;89;21073;-70
2021/06/10 06:22:01;;;;;;;17.30;14.03;;;;;;;16.20;57.83;101003.65;1599203;89;21065;-69
2021/06/10 06:24:28;;;;;;;14.75;10.20;;;;;;;16.17;58.24;101004.04;1552655;89;21132;-69
2021/06/10 06:26:54;;;;;;;15.18;9.83;;;;;;;16.11;58.61;101000.78;1599471;89;21528;-69
2021/06/10 06:29:20;;;;;;;13.15;9.35;;;;;;;16.08;58.99;101006.51;1598849;89;21029;-69
2021/06/10 06:31:46;;;;;;;12.30;8.73;;;;;;;16.10;59.37;101004.98;1578349;89;21048;-69
2021/06/10 06:34:12;;;;;;;12.43;8.18;;;;;;;16.08;59.73;101013.23;1596005;89;21182;-69
2021/06/10 06:36:38;;;;;;;12.37;8.60;;;;;;;16.07;60.06;101021.02;1595852;90;21350;-69
2021/06/10 06:39:06;;;;;;;12.63;8.58;;;;;;;16.05;60.36;101024.38;1595970;89;21088;-69
2021/06/10 06:41:32;;;;;;;14.80;9.78;;;;;;;16.12;60.67;101041.95;1596099;90;21013;-69
2021/06/10 06:43:58;;;;;;;13.18;9.93;;;;;;;16.10;60.97;101046.70;1596152;88;21083;-69
2021/06/10 06:46:24;;;;;;;14.40;9.53;;;;;;;16.07;61.29;101052.46;1596240;90;21556;-69
2021/06/10 06:48:50;;;;;;;10.90;7.78;;;;;;;15.98;61.69;101053.91;1596273;90;21026;-69
2021/06/10 06:51:16;;;;;;;10.05;8.20;;;;;;;15.88;62.10;101060.11;1595913;89;21068;-69
2021/06/10 06:53:42;;;;;;;12.33;7.55;;;;;;;15.80;62.47;101064.73;1594934;88;21090;-70
2021/06/10 06:56:08;;;;;;;9.73;7.37;;;;;;;15.74;62.85;101056.09;1625317;87;21000;-70
2021/06/10 06:58:35;;;;;;;10.53;7.50;;;;;;;15.66;63.24;101050.29;1625686;87;21208;-70
2021/06/10 07:01:01;;;;;;;14.25;9.53;;;;;;;15.48;63.63;101039.92;1629832;87;21062;-70
2021/06/10 07:03:27;;;;;;;17.42;11.65;;;;;;;15.46;64.03;101032.53;1628626;87;21002;-70
2021/06/10 07:05:53;;;;;;;17.73;11.10;;;;;;;15.40;64.35;101023.04;1629830;87;21519;-70
2021/06/10 07:08:20;;;;;;;19.17;9.75;;;;;;;15.31;64.71;101021.44;1621798;87;21055;-70
2021/06/10 07:10:53;;;;;;;18.42;12.10;;;;;;;15.25;65.11;101032.44;1591504;88;21050;-70
2021/06/10 07:13:14;;;;;;;20.30;11.48;;;;;;;15.26;65.44;101036.80;1624526;87;21023;-70
2021/06/10 07:15:41;;;;;;;13.32;9.03;;;;;;;15.27;65.78;101034.41;1630853;87;21104;-70
2021/06/10 07:18:07;;;;;;;13.25;8.48;;;;;;;15.24;66.08;101033.45;1620817;87;21042;-70
2021/06/10 07:20:33;;;;;;;11.80;8.28;;;;;;;15.28;66.40;101028.03;1630746;87;21022;-70
2021/06/10 07:23:00;;;;;;;8.60;7.22;;;;;;;15.30;66.70;101026.02;1629275;87;21438;-71
2021/06/10 07:25:27;;;;;;;11.10;6.72;;;;;;;15.30;66.98;101012.58;1629269;86;21038;-70
2021/06/10 07:27:53;;;;;;;9.20;7.33;;;;;;;15.29;67.26;101008.21;1588894;90;21131;-70
2021/06/10 07:30:21;;;;;;;10.82;7.53;;;;;;;15.29;67.54;101008.21;1626426;87;21014;-70
2021/06/10 07:32:48;;;;;;;8.20;7.37;;;;;;;15.28;67.83;101003.84;1645254;86;21037;-71
2021/06/10 07:35:14;;;;;;;9.55;7.17;;;;;;;15.26;68.09;101005.90;1644211;86;21133;-70
2021/06/10 07:37:41;;;;;;;10.15;6.12;;;;;;;15.28;68.30;101008.38;1644848;86;21551;-70
2021/06/10 07:40:08;;;;;;;8.15;5.03;;;;;;;15.30;68.53;101015.27;1645850;86;21006;-70
2021/06/10 07:42:34;;;;;;;9.30;6.12;;;;;;;15.38;68.70;101008.93;1610210;89;21032;-70
2021/06/10 07:45:00;;;;;;;8.43;6.37;;;;;;;15.47;68.87;101019.42;1610627;88;21074;-70
2021/06/10 07:47:26;;;;;;;9.88;8.13;;;;;;;15.58;68.96;101052.27;1603192;89;21170;-71
2021/06/10 07:49:52;;;;;;;10.13;9.00;;;;;;;15.60;69.13;101103.98;1599743;89;21084;-70
2021/06/10 07:52:18;;;;;;;14.33;9.40;;;;;;;15.55;69.37;101135.98;1597330;89;21500;-70
2021/06/10 07:54:44;;;;;;;10.70;9.40;;;;;;;15.52;69.60;101066.45;1594620;89;21082;-73
2021/06/10 07:57:11;;;;;;;11.28;9.30;;;;;;;15.42;69.87;101013.76;1600157;88;21505;-72
2021/06/10 07:59:37;;;;;;;12.43;9.13;;;;;;;15.34;70.13;101002.29;1596075;89;21680;-71
2021/06/10 08:02:03;;;;;;;11.28;8.73;;;;;;;15.33;70.37;100999.27;1595377;89;21028;-71
2021/06/10 08:04:30;;;;;;;9.98;8.18;;;;;;;15.34;70.57;100999.06;1597289;88;21103;-71
2021/06/10 08:06:56;;;;;;;10.60;7.45;;;;;;;15.32;70.78;100990.37;1598675;89;21043;-71
2021/06/10 08:09:22;;;;;;;10.45;7.87;;;;;;;15.33;71.01;100982.63;1599417;89;21051;-71
2021/06/10 08:11:48;;;;;;;10.58;7.08;;;;;;;15.40;71.16;100979.53;1595338;89;21771;-71
2021/06/10 08:14:14;;;;;;;7.85;6.03;;;;;;;15.52;71.29;100975.86;1598415;88;21528;-71
2021/06/10 08:16:40;;;;;;;7.28;6.05;;;;;;;15.65;71.35;100970.66;1613821;87;21456;-71
2021/06/10 08:19:06;;;;;;;6.00;5.28;;;;;;;15.74;71.39;100972.72;1610352;88;21535;-70
2021/06/10 08:21:32;;;;;;;7.47;5.30;;;;;;;15.82;71.43;100982.02;1610446;89;21039;-71
2021/06/10 08:23:58;;;;;;;5.35;4.75;;;;;;;15.90;71.46;100976.54;1610429;89;21159;-71
2021/06/10 08:26:25;;;;;;;4.95;4.42;;;;;;;15.99;71.50;100973.53;1610090;89;21060;-71
2021/06/10 08:28:51;;;;;;;5.87;4.72;;;;;;;16.10;71.50;100982.95;1610767;89;21178;-71
2021/06/10 08:31:17;;;;;;;7.65;5.72;;;;;;;16.13;71.51;100983.91;1609423;88;21068;-70
2021/06/10 08:33:43;;;;;;;7.62;5.47;;;;;;;16.24;71.54;100984.75;1610385;88;21012;-71
2021/06/10 08:36:09;;;;;;;6.28;5.67;;;;;;;16.37;71.57;100987.56;1604167;87;21213;-70
2021/06/10 08:38:37;;;;;;;7.47;5.42;;;;;;;16.58;71.56;100980.52;1596248;89;21064;-71
2021/06/10 08:41:03;;;;;;;6.65;5.08;;;;;;;16.75;71.43;100989.97;1595330;89;21069;-70
2021/06/10 08:43:29;;;;;;;7.65;5.00;;;;;;;16.81;71.35;100984.66;1598316;89;21074;-70
2021/06/10 08:46:05;;;;;;;5.62;4.40;;;;;;;16.88;71.29;100986.89;1599307;89;22480;-70
2021/06/10 08:48:49;;;;;;;6.50;5.50;;;;;;;16.91;71.24;100982.95;1595495;89;21493;-70
2021/06/10 08:51:11;;;;;;;5.42;4.87;;;;;;;17.05;71.22;100986.06;1599338;88;21548;-71
2021/06/10 08:53:37;;;;;;;4.85;4.33;;;;;;;17.33;71.20;100986.84;1600045;88;21086;-71
2021/06/10 08:56:04;;;;;;;4.87;4.37;;;;;;;17.68;71.09;100986.31;1598160;89;21032;-71
2021/06/10 08:58:30;;;;;;;4.53;3.87;;;;;;;18.10;70.93;100990.59;1597156;89;20980;-71
2021/06/10 09:00:58;;;;;;;5.95;4.03;;;;;;;18.43;70.72;100987.43;1596521;89;21094;-71
2021/06/10 09:03:26;;;;;;;6.12;4.30;;;;;;;18.69;70.48;100985.78;1600503;89;21618;-71
2021/06/10 09:06:06;;;;;;;3.80;3.50;;;;;;;18.94;70.20;100987.64;1610779;89;21028;-70
2021/06/10 09:08:37;;;;;;;4.37;3.70;;;;;;;19.15;69.87;100985.72;1611236;88;21068;-70
2021/06/10 09:11:16;;;;;;;6.47;3.52;;;;;;;19.37;69.63;100975.80;1610343;88;21006;-71
2021/06/10 09:13:47;;;;;;;4.60;3.35;;;;;;;19.74;69.31;100977.42;1581331;90;21284;-70
2021/06/10 09:16:27;;;;;;;3.60;3.30;;;;;;;19.98;68.81;100975.34;1610057;89;21079;-70
2021/06/10 09:19:02;;;;;;;4.83;3.40;;;;;;;20.18;68.42;100974.69;1591009;88;21045;-71
2021/06/10 09:21:36;;;;;;;4.42;3.55;;;;;;;20.40;68.01;100976.55;1610721;88;21062;-71
2021/06/10 09:24:31;;;;;;;4.83;3.90;;;;;;;20.39;67.54;100975.72;1609529;87;21031;-71
2021/06/10 09:27:05;;;;;;;5.53;3.30;;;;;;;20.54;67.30;100974.56;1607344;89;21272;-71
2021/06/10 09:29:51;;;;;;;3.80;3.40;;;;;;;20.88;66.93;100968.63;1603757;89;21058;-71
2021/06/10 09:32:19;;;;;;;7.00;3.65;;;;;;;21.24;66.46;100964.63;1647149;85;21048;-70
2021/06/10 09:35:04;;;;;;;4.17;3.77;;;;;;;21.32;66.12;100960.23;1645498;85;21024;-72
2021/06/10 09:37:38;;;;;;;7.22;4.10;;;;;;;21.38;65.75;100958.52;1643485;85;22202;-71
2021/06/10 09:40:13;;;;;;;8.10;3.92;;;;;;;21.69;65.41;100958.86;1641678;86;21194;-70
2021/06/10 09:42:40;;;;;;;5.90;4.08;;;;;;;21.88;64.89;100961.84;1608550;88;21031;-71
2021/06/10 09:45:17;;;;;;;5.03;4.53;;;;;;;21.96;64.43;100961.53;1641218;86;21549;-70
2021/06/10 09:47:51;;;;;;;5.37;4.20;;;;;;;22.15;64.15;100955.00;1649618;85;21097;-71
2021/06/10 09:50:32;;;;;;;4.87;4.25;;;;;;;22.35;63.75;100956.87;1647616;85;21073;-71
2021/06/10 09:53:08;;;;;;;8.78;4.70;;;;;;;22.64;63.28;100961.94;1610845;88;21239;-70
2021/06/10 09:55:56;;;;;;;6.20;4.25;;;;;;;22.80;62.64;100962.61;1610156;88;21117;-69
2021/06/10 09:58:29;;;;;;;5.17;4.20;;;;;;;22.56;62.02;100956.00;1610404;88;21455;-69
2021/06/10 10:01:05;;;;;;;6.95;4.87;;;;;;;22.43;61.63;100949.44;1613832;87;21025;-70
2021/06/10 10:03:40;;;;;;;4.95;4.45;;;;;;;22.55;61.26;100945.69;1611131;88;21067;-70
2021/06/10 10:06:06;;;;;;;5.25;3.50;;;;;;;22.68;60.92;100941.93;1584753;88;21471;-70
2021/06/10 10:08:33;;;;;;;3.70;3.35;;;;;;;22.85;60.52;100946.95;1620443;88;21170;-70
2021/06/10 10:11:01;;;;;;;4.17;3.30;;;;;;;22.85;59.99;100943.70;1613484;87;21025;-70
2021/06/10 10:13:29;;;;;;;5.62;3.80;;;;;;;22.89;59.54;100954.94;1611870;88;21537;-70
2021/06/10 10:16:02;;;;;;;4.67;3.90;;;;;;;22.79;58.96;100947.38;1611531;88;21028;-71
2021/06/10 10:18:29;;;;;;;4.47;4.05;;;;;;;22.71;58.39;100949.61;1609780;87;21955;-70
2021/06/10 10:21:00;;;;;;;4.67;3.87;;;;;;;22.65;58.05;100942.37;1612175;88;21213;-71
2021/06/10 10:23:27;;;;;;;5.50;3.92;;;;;;;22.72;57.88;100935.80;1599918;88;20972;-70
2021/06/10 10:25:56;;;;;;;4.65;3.62;;;;;;;22.85;57.67;100942.34;1641035;86;21046;-70
2021/06/10 10:28:21;;;;;;;4.40;3.50;;;;;;;22.99;57.33;100939.38;1597318;86;21112;-70
2021/06/10 10:30:47;;;;;;;4.08;3.45;;;;;;;23.05;57.14;100940.60;1649556;86;21522;-70
2021/06/10 10:33:20;;;;;;;7.00;3.60;;;;;;;22.97;56.67;100942.88;1615074;87;21101;-70
2021/06/10 10:35:57;;;;;;;4.70;4.10;;;;;;;22.91;56.31;100940.55;1586826;90;21278;-70
2021/06/10 10:38:42;;;;;;;4.15;3.75;;;;;;;22.88;56.06;100936.95;1611826;89;21289;-70
2021/06/10 10:41:14;;;;;;;4.55;3.42;;;;;;;23.04;55.76;100943.05;1583911;89;21053;-73
2021/06/10 10:43:40;;;;;;;4.62;3.42;;;;;;;23.11;55.48;100931.51;1642285;87;21641;-70
2021/06/10 10:46:11;;;;;;;4.87;3.33;;;;;;;23.18;55.24;100932.20;1655992;86;20993;-70
2021/06/10 10:48:43;;;;;;;5.97;3.30;;;;;;;23.17;54.81;100933.27;1647832;86;21106;-70
2021/06/10 10:51:34;;;;;;;3.17;2.90;;;;;;;23.16;54.65;100928.05;1645088;86;21050;-70
2021/06/10 10:54:00;;;;;;;5.00;2.93;;;;;;;23.29;54.42;100922.36;1644585;86;21080;-70
2021/06/10 10:56:42;;;;;;;5.95;3.10;;;;;;;23.22;54.10;100927.11;1646696;86;21778;-71
2021/06/10 10:59:18;;;;;;;5.15;3.60;;;;;;;23.26;54.04;100916.84;1644483;86;21509;-71
2021/06/10 11:02:06;;;;;;;6.05;3.15;;;;;;;23.48;53.81;100919.77;1645006;86;20998;-70
2021/06/10 11:04:59;;;;;;;5.53;3.47;;;;;;;23.40;53.35;100925.03;1643189;86;21010;-70
2021/06/10 11:07:40;;;;;;;3.72;3.25;;;;;;;23.38;53.21;100917.65;1648285;85;21513;-70
2021/06/10 11:10:19;;;;;;;3.92;3.12;;;;;;;23.64;53.03;100919.55;1656662;85;21491;-70
2021/06/10 11:12:50;;;;;;;3.65;2.67;;;;;;;23.93;52.90;100921.17;1632631;86;21096;-71
2021/06/10 11:15:31;;;;;;;4.47;3.47;;;;;;;23.86;52.63;100917.77;1654505;85;21452;-70
2021/06/10 11:18:02;;;;;;;4.37;3.20;;;;;;;23.93;52.50;100909.44;1609990;87;21109;-70
2021/06/10 11:20:42;;;;;;;7.40;3.83;;;;;;;23.93;52.26;100904.83;1588282;89;21033;-71
2021/06/10 11:23:28;;;;;;;3.67;3.15;;;;;;;23.86;52.01;100906.88;1622210;87;21446;-70
2021/06/10 11:25:57;;;;;;;3.77;3.05;;;;;;;23.97;51.96;100897.82;1611410;88;20993;-71